sensor_id;sensor_type;location;lat;lon;timestamp;P1;durP1;ratioP1;P2;durP2;ratioP2
57303;SDS011;43150;50.986;18.208;2022-11-02T00:01:40;29.40;;;26.50;;
57303;SDS011;43150;50.986;18.208;2022-11-02T00:06:34;27.30;;;24.60;;
57303;SDS011;43150;50.986;18.208;2022-11-02T00:09:03;22.70;;;18.00;;
57303;SDS011;43150;50.986;18.208;2022-11-02T00:11:28;25.20;;;22.60;;
57303;SDS011;43150;50.986;18.208;2022-11-02T00:13:54;26.10;;;23.60;;
57303;SDS011;43150;50.986;18.208;2022-11-02T00:16:20;25.20;;;22.70;;
57303;SDS011;43150;50.986;18.208;2022-11-02T00:18:48;25.40;;;23.00;;
57303;SDS011;43150;50.986;18.208;2022-11-02T00:23:51;27.10;;;24.50;;
57303;SDS011;43150;50.986;18.208;2022-11-02T00:26:17;27.30;;;24.60;;
57303;SDS011;43150;50.986;18.208;2022-11-02T00:28:43;27.20;;;24.50;;
57303;SDS011;43150;50.986;18.208;2022-11-02T00:31:09;28.00;;;25.10;;
57303;SDS011;43150;50.986;18.208;2022-11-02T00:33:35;27.90;;;25.10;;
57303;SDS011;43150;50.986;18.208;2022-11-02T00:36:04;28.30;;;25.60;;
57303;SDS011;43150;50.986;18.208;2022-11-02T00:38:30;29.00;;;26.10;;
57303;SDS011;43150;50.986;18.208;2022-11-02T00:40:56;29.50;;;26.50;;
57303;SDS011;43150;50.986;18.208;2022-11-02T00:43:24;28.20;;;25.40;;
57303;SDS011;43150;50.986;18.208;2022-11-02T00:45:54;24.70;;;19.00;;
57303;SDS011;43150;50.986;18.208;2022-11-02T00:48:25;27.70;;;25.00;;
57303;SDS011;43150;50.986;18.208;2022-11-02T00:50:51;27.70;;;24.90;;
57303;SDS011;43150;50.986;18.208;2022-11-02T00:53:17;27.50;;;24.90;;
57303;SDS011;43150;50.986;18.208;2022-11-02T00:55:46;28.30;;;25.50;;
57303;SDS011;43150;50.986;18.208;2022-11-02T00:58:12;28.10;;;25.20;;
57303;SDS011;43150;50.986;18.208;2022-11-02T01:00:37;27.50;;;18.50;;
57303;SDS011;43150;50.986;18.208;2022-11-02T01:03:03;29.00;;;26.10;;
57303;SDS011;43150;50.986;18.208;2022-11-02T01:05:40;29.00;;;26.00;;
57303;SDS011;43150;50.986;18.208;2022-11-02T01:08:06;29.30;;;26.40;;
57303;SDS011;43150;50.986;18.208;2022-11-02T01:10:32;29.10;;;26.30;;
57303;SDS011;43150;50.986;18.208;2022-11-02T01:12:57;28.80;;;26.00;;
57303;SDS011;43150;50.986;18.208;2022-11-02T01:15:24;29.10;;;20.10;;
57303;SDS011;43150;50.986;18.208;2022-11-02T01:17:50;28.90;;;26.00;;
57303;SDS011;43150;50.986;18.208;2022-11-02T01:20:16;29.80;;;26.90;;
57303;SDS011;43150;50.986;18.208;2022-11-02T01:22:41;29.70;;;26.50;;
57303;SDS011;43150;50.986;18.208;2022-11-02T01:25:07;26.60;;;20.10;;
57303;SDS011;43150;50.986;18.208;2022-11-02T01:27:33;30.40;;;27.30;;
57303;SDS011;43150;50.986;18.208;2022-11-02T01:30:01;31.40;;;28.30;;
57303;SDS011;43150;50.986;18.208;2022-11-02T01:32:28;30.40;;;27.30;;
57303;SDS011;43150;50.986;18.208;2022-11-02T01:34:55;30.70;;;27.60;;
57303;SDS011;43150;50.986;18.208;2022-11-02T01:37:23;27.40;;;19.70;;
57303;SDS011;43150;50.986;18.208;2022-11-02T01:39:49;29.60;;;26.60;;
57303;SDS011;43150;50.986;18.208;2022-11-02T01:42:16;27.50;;;24.80;;
57303;SDS011;43150;50.986;18.208;2022-11-02T01:44:46;25.50;;;22.90;;
57303;SDS011;43150;50.986;18.208;2022-11-02T01:50:16;25.70;;;22.90;;
57303;SDS011;43150;50.986;18.208;2022-11-02T01:52:48;24.40;;;22.00;;
57303;SDS011;43150;50.986;18.208;2022-11-02T01:55:21;23.50;;;16.90;;
57303;SDS011;43150;50.986;18.208;2022-11-02T01:57:56;24.80;;;22.20;;
57303;SDS011;43150;50.986;18.208;2022-11-02T02:00:25;24.10;;;21.60;;
57303;SDS011;43150;50.986;18.208;2022-11-02T02:02:54;23.10;;;20.60;;
57303;SDS011;43150;50.986;18.208;2022-11-02T02:05:37;24.80;;;22.20;;
57303;SDS011;43150;50.986;18.208;2022-11-02T02:08:08;24.40;;;21.90;;
57303;SDS011;43150;50.986;18.208;2022-11-02T02:10:36;24.80;;;22.20;;
57303;SDS011;43150;50.986;18.208;2022-11-02T02:13:03;23.20;;;17.20;;
57303;SDS011;43150;50.986;18.208;2022-11-02T02:15:35;25.20;;;22.60;;
57303;SDS011;43150;50.986;18.208;2022-11-02T02:18:07;24.90;;;22.40;;
57303;SDS011;43150;50.986;18.208;2022-11-02T02:29:23;27.50;;;24.60;;
57303;SDS011;43150;50.986;18.208;2022-11-02T02:34:25;27.90;;;25.00;;
57303;SDS011;43150;50.986;18.208;2022-11-02T02:36:56;28.60;;;25.70;;
57303;SDS011;43150;50.986;18.208;2022-11-02T02:39:31;28.70;;;25.60;;
57303;SDS011;43150;50.986;18.208;2022-11-02T02:42:32;28.80;;;25.90;;
57303;SDS011;43150;50.986;18.208;2022-11-02T02:45:25;28.90;;;26.10;;
57303;SDS011;43150;50.986;18.208;2022-11-02T02:48:14;28.00;;;25.00;;
57303;SDS011;43150;50.986;18.208;2022-11-02T02:50:48;26.50;;;23.80;;
57303;SDS011;43150;50.986;18.208;2022-11-02T02:53:15;27.60;;;24.90;;
57303;SDS011;43150;50.986;18.208;2022-11-02T02:55:45;27.00;;;24.10;;
57303;SDS011;43150;50.986;18.208;2022-11-02T02:58:13;26.70;;;18.40;;
57303;SDS011;43150;50.986;18.208;2022-11-02T03:00:45;24.70;;;22.10;;
57303;SDS011;43150;50.986;18.208;2022-11-02T03:03:19;24.30;;;21.80;;
57303;SDS011;43150;50.986;18.208;2022-11-02T03:20:17;23.70;;;21.10;;
57303;SDS011;43150;50.986;18.208;2022-11-02T03:23:01;23.10;;;20.60;;
57303;SDS011;43150;50.986;18.208;2022-11-02T03:28:41;25.90;;;23.10;;
57303;SDS011;43150;50.986;18.208;2022-11-02T03:36:44;24.70;;;22.10;;
57303;SDS011;43150;50.986;18.208;2022-11-02T03:39:12;25.70;;;23.10;;
57303;SDS011;43150;50.986;18.208;2022-11-02T03:41:43;26.00;;;23.30;;
57303;SDS011;43150;50.986;18.208;2022-11-02T03:44:10;25.60;;;18.00;;
57303;SDS011;43150;50.986;18.208;2022-11-02T03:46:39;26.40;;;23.80;;
57303;SDS011;43150;50.986;18.208;2022-11-02T03:49:06;27.30;;;24.40;;
57303;SDS011;43150;50.986;18.208;2022-11-02T03:54:04;27.10;;;24.40;;
57303;SDS011;43150;50.986;18.208;2022-11-02T03:56:37;28.50;;;25.40;;
57303;SDS011;43150;50.986;18.208;2022-11-02T03:59:05;25.30;;;18.60;;
57303;SDS011;43150;50.986;18.208;2022-11-02T04:01:31;26.70;;;23.90;;
57303;SDS011;43150;50.986;18.208;2022-11-02T04:04:03;26.60;;;24.00;;
57303;SDS011;43150;50.986;18.208;2022-11-02T04:06:29;25.90;;;23.20;;
57303;SDS011;43150;50.986;18.208;2022-11-02T04:08:54;26.70;;;24.00;;
57303;SDS011;43150;50.986;18.208;2022-11-02T04:11:20;28.00;;;25.10;;
57303;SDS011;43150;50.986;18.208;2022-11-02T04:14:04;29.00;;;25.90;;
57303;SDS011;43150;50.986;18.208;2022-11-02T04:16:52;28.00;;;25.20;;
57303;SDS011;43150;50.986;18.208;2022-11-02T04:19:38;27.60;;;24.70;;
57303;SDS011;43150;50.986;18.208;2022-11-02T04:22:04;24.90;;;18.20;;
57303;SDS011;43150;50.986;18.208;2022-11-02T04:24:51;27.40;;;24.40;;
57303;SDS011;43150;50.986;18.208;2022-11-02T04:27:35;28.10;;;25.30;;
57303;SDS011;43150;50.986;18.208;2022-11-02T04:30:01;28.60;;;25.60;;
57303;SDS011;43150;50.986;18.208;2022-11-02T04:32:28;28.30;;;25.30;;
57303;SDS011;43150;50.986;18.208;2022-11-02T04:35:12;28.80;;;25.80;;
57303;SDS011;43150;50.986;18.208;2022-11-02T04:37:38;29.70;;;26.50;;
57303;SDS011;43150;50.986;18.208;2022-11-02T04:40:24;31.20;;;27.80;;
57303;SDS011;43150;50.986;18.208;2022-11-02T04:42:49;39.90;;;24.70;;
57303;SDS011;43150;50.986;18.208;2022-11-02T04:45:15;50.60;;;39.40;;
57303;SDS011;43150;50.986;18.208;2022-11-02T04:47:40;47.50;;;37.80;;
57303;SDS011;43150;50.986;18.208;2022-11-02T04:50:06;44.80;;;35.30;;
57303;SDS011;43150;50.986;18.208;2022-11-02T04:52:32;42.10;;;33.90;;
57303;SDS011;43150;50.986;18.208;2022-11-02T04:54:57;43.00;;;25.30;;
57303;SDS011;43150;50.986;18.208;2022-11-02T04:57:23;52.80;;;39.50;;
57303;SDS011;43150;50.986;18.208;2022-11-02T04:59:54;47.90;;;36.20;;
57303;SDS011;43150;50.986;18.208;2022-11-02T05:02:19;41.40;;;33.40;;
57303;SDS011;43150;50.986;18.208;2022-11-02T05:04:45;34.30;;;30.00;;
57303;SDS011;43150;50.986;18.208;2022-11-02T05:07:11;30.20;;;20.90;;
57303;SDS011;43150;50.986;18.208;2022-11-02T05:09:39;32.00;;;28.60;;
57303;SDS011;43150;50.986;18.208;2022-11-02T05:12:06;32.70;;;29.40;;
57303;SDS011;43150;50.986;18.208;2022-11-02T05:14:32;32.50;;;29.00;;
57303;SDS011;43150;50.986;18.208;2022-11-02T05:17:01;29.60;;;20.70;;
57303;SDS011;43150;50.986;18.208;2022-11-02T05:19:27;31.70;;;28.30;;
57303;SDS011;43150;50.986;18.208;2022-11-02T05:21:52;31.60;;;28.10;;
57303;SDS011;43150;50.986;18.208;2022-11-02T05:24:18;31.80;;;28.50;;
57303;SDS011;43150;50.986;18.208;2022-11-02T05:26:43;31.30;;;28.00;;
57303;SDS011;43150;50.986;18.208;2022-11-02T05:29:09;29.70;;;21.20;;
57303;SDS011;43150;50.986;18.208;2022-11-02T05:31:35;32.00;;;28.60;;
57303;SDS011;43150;50.986;18.208;2022-11-02T05:34:00;30.40;;;27.10;;
57303;SDS011;43150;50.986;18.208;2022-11-02T05:36:26;31.10;;;27.80;;
57303;SDS011;43150;50.986;18.208;2022-11-02T05:38:52;31.50;;;21.10;;
57303;SDS011;43150;50.986;18.208;2022-11-02T05:41:18;32.00;;;28.60;;
57303;SDS011;43150;50.986;18.208;2022-11-02T05:43:44;31.40;;;28.20;;
57303;SDS011;43150;50.986;18.208;2022-11-02T05:46:09;33.60;;;30.00;;
57303;SDS011;43150;50.986;18.208;2022-11-02T05:48:35;34.40;;;30.70;;
57303;SDS011;43150;50.986;18.208;2022-11-02T05:51:01;34.80;;;31.10;;
57303;SDS011;43150;50.986;18.208;2022-11-02T05:53:28;35.50;;;31.70;;
57303;SDS011;43150;50.986;18.208;2022-11-02T05:55:58;35.00;;;31.30;;
57303;SDS011;43150;50.986;18.208;2022-11-02T05:58:31;36.50;;;32.60;;
57303;SDS011;43150;50.986;18.208;2022-11-02T06:00:58;38.00;;;33.50;;
57303;SDS011;43150;50.986;18.208;2022-11-02T06:03:28;37.20;;;33.30;;
57303;SDS011;43150;50.986;18.208;2022-11-02T06:05:59;37.50;;;33.50;;
57303;SDS011;43150;50.986;18.208;2022-11-02T06:08:26;36.80;;;32.30;;
57303;SDS011;43150;50.986;18.208;2022-11-02T06:10:55;34.40;;;30.40;;
57303;SDS011;43150;50.986;18.208;2022-11-02T06:13:20;33.30;;;29.70;;
57303;SDS011;43150;50.986;18.208;2022-11-02T06:15:46;34.40;;;29.60;;
57303;SDS011;43150;50.986;18.208;2022-11-02T06:18:11;34.70;;;30.90;;
57303;SDS011;43150;50.986;18.208;2022-11-02T06:20:37;35.00;;;29.70;;
57303;SDS011;43150;50.986;18.208;2022-11-02T06:23:02;35.00;;;29.90;;
57303;SDS011;43150;50.986;18.208;2022-11-02T06:25:29;38.50;;;31.70;;
57303;SDS011;43150;50.986;18.208;2022-11-02T06:27:54;41.90;;;34.10;;
57303;SDS011;43150;50.986;18.208;2022-11-02T06:30:25;43.00;;;34.90;;
57303;SDS011;43150;50.986;18.208;2022-11-02T06:32:51;39.30;;;33.80;;
57303;SDS011;43150;50.986;18.208;2022-11-02T06:35:18;34.80;;;30.70;;
57303;SDS011;43150;50.986;18.208;2022-11-02T06:37:44;32.00;;;28.50;;
57303;SDS011;43150;50.986;18.208;2022-11-02T06:40:13;28.90;;;26.00;;
57303;SDS011;43150;50.986;18.208;2022-11-02T06:42:39;28.20;;;25.40;;
57303;SDS011;43150;50.986;18.208;2022-11-02T06:45:06;27.90;;;25.00;;
57303;SDS011;43150;50.986;18.208;2022-11-02T06:47:33;26.50;;;24.00;;
57303;SDS011;43150;50.986;18.208;2022-11-02T06:50:00;25.00;;;22.50;;
57303;SDS011;43150;50.986;18.208;2022-11-02T06:52:27;24.20;;;21.70;;
57303;SDS011;43150;50.986;18.208;2022-11-02T06:54:53;22.90;;;20.50;;
57303;SDS011;43150;50.986;18.208;2022-11-02T06:57:19;22.00;;;19.80;;
57303;SDS011;43150;50.986;18.208;2022-11-02T06:59:47;21.30;;;19.10;;
57303;SDS011;43150;50.986;18.208;2022-11-02T07:02:13;20.70;;;18.50;;
57303;SDS011;43150;50.986;18.208;2022-11-02T07:04:41;20.80;;;18.60;;
57303;SDS011;43150;50.986;18.208;2022-11-02T07:07:07;20.30;;;18.30;;
57303;SDS011;43150;50.986;18.208;2022-11-02T07:09:32;20.40;;;18.30;;
57303;SDS011;43150;50.986;18.208;2022-11-02T07:11:58;19.40;;;17.30;;
57303;SDS011;43150;50.986;18.208;2022-11-02T07:14:23;20.70;;;18.50;;
57303;SDS011;43150;50.986;18.208;2022-11-02T07:16:49;20.10;;;18.00;;
57303;SDS011;43150;50.986;18.208;2022-11-02T07:19:15;20.20;;;18.10;;
57303;SDS011;43150;50.986;18.208;2022-11-02T07:21:41;18.40;;;16.50;;
57303;SDS011;43150;50.986;18.208;2022-11-02T07:24:06;19.50;;;17.60;;
57303;SDS011;43150;50.986;18.208;2022-11-02T07:26:38;16.80;;;15.00;;
57303;SDS011;43150;50.986;18.208;2022-11-02T07:29:05;17.70;;;15.90;;
57303;SDS011;43150;50.986;18.208;2022-11-02T07:31:31;15.80;;;14.20;;
57303;SDS011;43150;50.986;18.208;2022-11-02T07:33:57;15.60;;;14.00;;
57303;SDS011;43150;50.986;18.208;2022-11-02T07:36:23;16.40;;;14.70;;
57303;SDS011;43150;50.986;18.208;2022-11-02T07:38:49;15.00;;;13.50;;
57303;SDS011;43150;50.986;18.208;2022-11-02T07:41:15;15.20;;;13.30;;
57303;SDS011;43150;50.986;18.208;2022-11-02T07:43:40;15.60;;;13.80;;
57303;SDS011;43150;50.986;18.208;2022-11-02T07:46:06;14.40;;;12.90;;
57303;SDS011;43150;50.986;18.208;2022-11-02T07:48:32;15.00;;;13.30;;
57303;SDS011;43150;50.986;18.208;2022-11-02T07:50:57;14.50;;;13.10;;
57303;SDS011;43150;50.986;18.208;2022-11-02T07:53:26;15.40;;;13.80;;
57303;SDS011;43150;50.986;18.208;2022-11-02T07:55:51;14.70;;;13.20;;
57303;SDS011;43150;50.986;18.208;2022-11-02T07:58:17;17.20;;;12.80;;
57303;SDS011;43150;50.986;18.208;2022-11-02T08:00:43;13.70;;;12.30;;
57303;SDS011;43150;50.986;18.208;2022-11-02T08:03:11;13.80;;;12.40;;
57303;SDS011;43150;50.986;18.208;2022-11-02T08:05:38;13.70;;;12.20;;
57303;SDS011;43150;50.986;18.208;2022-11-02T08:08:09;12.80;;;11.40;;
57303;SDS011;43150;50.986;18.208;2022-11-02T08:10:45;13.40;;;11.80;;
57303;SDS011;43150;50.986;18.208;2022-11-02T08:13:14;12.60;;;11.20;;
57303;SDS011;43150;50.986;18.208;2022-11-02T08:15:50;17.10;;;15.40;;
57303;SDS011;43150;50.986;18.208;2022-11-02T08:18:21;12.30;;;10.80;;
57303;SDS011;43150;50.986;18.208;2022-11-02T08:20:50;13.80;;;12.40;;
57303;SDS011;43150;50.986;18.208;2022-11-02T08:23:16;23.00;;;20.70;;
57303;SDS011;43150;50.986;18.208;2022-11-02T08:26:00;12.80;;;11.50;;
57303;SDS011;43150;50.986;18.208;2022-11-02T08:28:27;12.40;;;10.70;;
57303;SDS011;43150;50.986;18.208;2022-11-02T08:30:59;12.00;;;9.60;;
57303;SDS011;43150;50.986;18.208;2022-11-02T08:33:25;9.40;;;8.30;;
57303;SDS011;43150;50.986;18.208;2022-11-02T08:35:50;9.50;;;8.60;;
57303;SDS011;43150;50.986;18.208;2022-11-02T08:38:18;9.00;;;8.10;;
57303;SDS011;43150;50.986;18.208;2022-11-02T08:40:47;9.30;;;7.90;;
57303;SDS011;43150;50.986;18.208;2022-11-02T08:43:13;8.40;;;7.40;;
57303;SDS011;43150;50.986;18.208;2022-11-02T08:45:40;10.10;;;8.60;;
57303;SDS011;43150;50.986;18.208;2022-11-02T08:48:07;9.30;;;7.50;;
57303;SDS011;43150;50.986;18.208;2022-11-02T08:50:33;8.20;;;6.80;;
57303;SDS011;43150;50.986;18.208;2022-11-02T08:53:00;11.80;;;7.80;;
57303;SDS011;43150;50.986;18.208;2022-11-02T08:55:26;10.10;;;8.10;;
57303;SDS011;43150;50.986;18.208;2022-11-02T08:57:53;8.90;;;7.10;;
57303;SDS011;43150;50.986;18.208;2022-11-02T09:00:23;9.50;;;7.60;;
57303;SDS011;43150;50.986;18.208;2022-11-02T09:03:24;9.20;;;7.00;;
57303;SDS011;43150;50.986;18.208;2022-11-02T09:05:45;7.50;;;6.70;;
57303;SDS011;43150;50.986;18.208;2022-11-02T09:08:12;8.90;;;7.90;;
57303;SDS011;43150;50.986;18.208;2022-11-02T09:10:39;13.70;;;11.70;;
57303;SDS011;43150;50.986;18.208;2022-11-02T09:13:06;9.90;;;8.50;;
57303;SDS011;43150;50.986;18.208;2022-11-02T09:15:34;8.00;;;6.00;;
57303;SDS011;43150;50.986;18.208;2022-11-02T09:18:01;7.50;;;5.50;;
57303;SDS011;43150;50.986;18.208;2022-11-02T09:20:26;8.20;;;6.50;;
57303;SDS011;43150;50.986;18.208;2022-11-02T09:22:52;8.40;;;6.60;;
57303;SDS011;43150;50.986;18.208;2022-11-02T09:25:17;9.50;;;6.50;;
57303;SDS011;43150;50.986;18.208;2022-11-02T09:27:43;7.60;;;5.80;;
57303;SDS011;43150;50.986;18.208;2022-11-02T09:30:10;7.50;;;5.70;;
57303;SDS011;43150;50.986;18.208;2022-11-02T09:32:36;6.60;;;5.20;;
57303;SDS011;43150;50.986;18.208;2022-11-02T09:35:03;8.60;;;6.90;;
57303;SDS011;43150;50.986;18.208;2022-11-02T09:37:32;6.70;;;5.20;;
57303;SDS011;43150;50.986;18.208;2022-11-02T09:39:57;7.40;;;6.40;;
57303;SDS011;43150;50.986;18.208;2022-11-02T09:47:30;8.90;;;4.60;;
57303;SDS011;43150;50.986;18.208;2022-11-02T09:49:57;9.10;;;4.50;;
57303;SDS011;43150;50.986;18.208;2022-11-02T09:52:29;6.40;;;4.40;;
57303;SDS011;43150;50.986;18.208;2022-11-02T09:55:03;9.10;;;6.20;;
57303;SDS011;43150;50.986;18.208;2022-11-02T09:57:34;10.90;;;5.70;;
57303;SDS011;43150;50.986;18.208;2022-11-02T10:00:00;8.10;;;5.40;;
57303;SDS011;43150;50.986;18.208;2022-11-02T10:13:51;7.20;;;4.80;;
57303;SDS011;43150;50.986;18.208;2022-11-02T10:16:23;8.10;;;5.10;;
57303;SDS011;43150;50.986;18.208;2022-11-02T10:18:52;6.60;;;4.70;;
57303;SDS011;43150;50.986;18.208;2022-11-02T10:21:22;9.50;;;5.00;;
57303;SDS011;43150;50.986;18.208;2022-11-02T10:23:51;5.90;;;4.20;;
57303;SDS011;43150;50.986;18.208;2022-11-02T10:26:21;5.20;;;3.40;;
57303;SDS011;43150;50.986;18.208;2022-11-02T10:31:42;5.80;;;3.10;;
57303;SDS011;43150;50.986;18.208;2022-11-02T10:34:24;5.50;;;3.20;;
57303;SDS011;43150;50.986;18.208;2022-11-02T10:48:23;6.30;;;3.20;;
57303;SDS011;43150;50.986;18.208;2022-11-02T10:53:18;7.70;;;3.30;;
57303;SDS011;43150;50.986;18.208;2022-11-02T10:58:26;6.40;;;3.40;;
57303;SDS011;43150;50.986;18.208;2022-11-02T11:01:05;5.70;;;2.90;;
57303;SDS011;43150;50.986;18.208;2022-11-02T11:03:32;4.60;;;2.60;;
57303;SDS011;43150;50.986;18.208;2022-11-02T11:06:01;8.40;;;4.70;;
57303;SDS011;43150;50.986;18.208;2022-11-02T11:08:29;4.60;;;2.80;;
57303;SDS011;43150;50.986;18.208;2022-11-02T11:13:44;5.00;;;3.60;;
57303;SDS011;43150;50.986;18.208;2022-11-02T11:16:18;14.80;;;3.80;;
57303;SDS011;43150;50.986;18.208;2022-11-02T11:18:48;11.20;;;3.70;;
57303;SDS011;43150;50.986;18.208;2022-11-02T11:21:17;4.80;;;3.90;;
57303;SDS011;43150;50.986;18.208;2022-11-02T11:23:45;5.00;;;3.10;;
57303;SDS011;43150;50.986;18.208;2022-11-02T11:26:24;6.50;;;5.00;;
57303;SDS011;43150;50.986;18.208;2022-11-02T11:28:53;10.00;;;3.80;;
57303;SDS011;43150;50.986;18.208;2022-11-02T11:31:21;6.90;;;3.60;;
57303;SDS011;43150;50.986;18.208;2022-11-02T11:33:51;5.30;;;3.80;;
57303;SDS011;43150;50.986;18.208;2022-11-02T11:36:21;6.30;;;4.20;;
57303;SDS011;43150;50.986;18.208;2022-11-02T11:38:51;9.70;;;4.70;;
57303;SDS011;43150;50.986;18.208;2022-11-02T11:41:19;4.30;;;3.40;;
57303;SDS011;43150;50.986;18.208;2022-11-02T11:43:45;5.30;;;3.20;;
57303;SDS011;43150;50.986;18.208;2022-11-02T11:46:12;6.80;;;4.50;;
57303;SDS011;43150;50.986;18.208;2022-11-02T11:48:46;6.10;;;3.10;;
57303;SDS011;43150;50.986;18.208;2022-11-02T11:56:42;5.60;;;3.10;;
57303;SDS011;43150;50.986;18.208;2022-11-02T12:04:26;5.40;;;3.20;;
57303;SDS011;43150;50.986;18.208;2022-11-02T12:06:56;4.30;;;2.50;;
57303;SDS011;43150;50.986;18.208;2022-11-02T12:09:52;5.40;;;3.30;;
57303;SDS011;43150;50.986;18.208;2022-11-02T12:12:31;5.90;;;2.70;;
57303;SDS011;43150;50.986;18.208;2022-11-02T12:18:24;4.90;;;2.20;;
57303;SDS011;43150;50.986;18.208;2022-11-02T12:26:40;5.00;;;2.20;;
57303;SDS011;43150;50.986;18.208;2022-11-02T12:32:07;3.80;;;1.80;;
57303;SDS011;43150;50.986;18.208;2022-11-02T12:34:56;5.40;;;2.10;;
57303;SDS011;43150;50.986;18.208;2022-11-02T12:40:24;6.40;;;2.60;;
57303;SDS011;43150;50.986;18.208;2022-11-02T12:54:09;3.80;;;1.90;;
57303;SDS011;43150;50.986;18.208;2022-11-02T12:56:49;4.00;;;2.30;;
57303;SDS011;43150;50.986;18.208;2022-11-02T12:59:23;6.10;;;2.10;;
57303;SDS011;43150;50.986;18.208;2022-11-02T13:01:53;5.10;;;2.10;;
57303;SDS011;43150;50.986;18.208;2022-11-02T13:04:24;4.80;;;2.30;;
57303;SDS011;43150;50.986;18.208;2022-11-02T13:09:30;5.30;;;2.00;;
57303;SDS011;43150;50.986;18.208;2022-11-02T13:12:09;4.80;;;2.10;;
57303;SDS011;43150;50.986;18.208;2022-11-02T13:14:39;3.60;;;1.80;;
57303;SDS011;43150;50.986;18.208;2022-11-02T13:19:49;11.70;;;2.80;;
57303;SDS011;43150;50.986;18.208;2022-11-02T13:22:18;8.40;;;2.10;;
57303;SDS011;43150;50.986;18.208;2022-11-02T13:24:52;5.50;;;2.40;;
57303;SDS011;43150;50.986;18.208;2022-11-02T13:30:12;4.40;;;1.90;;
57303;SDS011;43150;50.986;18.208;2022-11-02T13:35:45;6.30;;;2.50;;
57303;SDS011;43150;50.986;18.208;2022-11-02T13:40:38;4.50;;;2.20;;
57303;SDS011;43150;50.986;18.208;2022-11-02T13:43:31;6.80;;;2.20;;
57303;SDS011;43150;50.986;18.208;2022-11-02T13:46:44;4.40;;;2.10;;
57303;SDS011;43150;50.986;18.208;2022-11-02T13:49:13;5.90;;;2.30;;
57303;SDS011;43150;50.986;18.208;2022-11-02T13:54:28;5.60;;;2.50;;
57303;SDS011;43150;50.986;18.208;2022-11-02T13:57:19;5.10;;;2.60;;
57303;SDS011;43150;50.986;18.208;2022-11-02T13:59:58;6.40;;;2.80;;
57303;SDS011;43150;50.986;18.208;2022-11-02T14:02:27;5.60;;;2.40;;
57303;SDS011;43150;50.986;18.208;2022-11-02T14:04:57;4.90;;;2.40;;
57303;SDS011;43150;50.986;18.208;2022-11-02T14:07:26;5.00;;;2.10;;
57303;SDS011;43150;50.986;18.208;2022-11-02T14:09:58;5.60;;;2.50;;
57303;SDS011;43150;50.986;18.208;2022-11-02T14:12:43;6.10;;;2.60;;
57303;SDS011;43150;50.986;18.208;2022-11-02T14:20:42;9.50;;;4.20;;
57303;SDS011;43150;50.986;18.208;2022-11-02T14:28:52;21.90;;;14.00;;
57303;SDS011;43150;50.986;18.208;2022-11-02T14:47:14;38.60;;;31.90;;
57303;SDS011;43150;50.986;18.208;2022-11-02T14:52:19;79.90;;;60.50;;
57303;SDS011;43150;50.986;18.208;2022-11-02T14:55:08;85.50;;;56.30;;
57303;SDS011;43150;50.986;18.208;2022-11-02T14:57:56;124.10;;;66.70;;
57303;SDS011;43150;50.986;18.208;2022-11-02T15:00:28;203.90;;;104.80;;
57303;SDS011;43150;50.986;18.208;2022-11-02T15:03:01;194.60;;;98.30;;
57303;SDS011;43150;50.986;18.208;2022-11-02T15:05:36;49.80;;;32.00;;
57303;SDS011;43150;50.986;18.208;2022-11-02T15:10:35;17.80;;;10.60;;
57303;SDS011;43150;50.986;18.208;2022-11-02T15:23:45;14.60;;;10.00;;
57303;SDS011;43150;50.986;18.208;2022-11-02T15:31:53;19.80;;;12.60;;
57303;SDS011;43150;50.986;18.208;2022-11-02T15:34:20;19.10;;;12.30;;
57303;SDS011;43150;50.986;18.208;2022-11-02T15:37:19;21.40;;;14.50;;
57303;SDS011;43150;50.986;18.208;2022-11-02T15:39:50;20.30;;;13.60;;
57303;SDS011;43150;50.986;18.208;2022-11-02T15:56:45;15.70;;;10.90;;
57303;SDS011;43150;50.986;18.208;2022-11-02T16:02:17;19.10;;;13.60;;
57303;SDS011;43150;50.986;18.208;2022-11-02T16:04:59;20.50;;;14.50;;
57303;SDS011;43150;50.986;18.208;2022-11-02T16:07:25;20.60;;;14.80;;
57303;SDS011;43150;50.986;18.208;2022-11-02T16:09:53;18.60;;;14.70;;
57303;SDS011;43150;50.986;18.208;2022-11-02T16:12:20;16.20;;;13.40;;
57303;SDS011;43150;50.986;18.208;2022-11-02T16:15:10;14.40;;;12.00;;
57303;SDS011;43150;50.986;18.208;2022-11-02T16:17:44;12.70;;;11.10;;
57303;SDS011;43150;50.986;18.208;2022-11-02T16:20:15;16.50;;;12.80;;
57303;SDS011;43150;50.986;18.208;2022-11-02T16:23:18;14.50;;;11.30;;
57303;SDS011;43150;50.986;18.208;2022-11-02T16:25:46;15.50;;;11.60;;
57303;SDS011;43150;50.986;18.208;2022-11-02T16:31:12;14.50;;;11.30;;
57303;SDS011;43150;50.986;18.208;2022-11-02T16:33:39;14.60;;;11.50;;
57303;SDS011;43150;50.986;18.208;2022-11-02T16:36:07;16.50;;;12.10;;
57303;SDS011;43150;50.986;18.208;2022-11-02T16:38:37;15.10;;;12.50;;
57303;SDS011;43150;50.986;18.208;2022-11-02T16:41:07;17.00;;;14.10;;
57303;SDS011;43150;50.986;18.208;2022-11-02T16:43:33;16.80;;;13.90;;
57303;SDS011;43150;50.986;18.208;2022-11-02T16:46:01;18.80;;;15.80;;
57303;SDS011;43150;50.986;18.208;2022-11-02T16:48:29;19.40;;;15.80;;
57303;SDS011;43150;50.986;18.208;2022-11-02T16:53:38;20.50;;;17.80;;
57303;SDS011;43150;50.986;18.208;2022-11-02T16:58:48;20.70;;;17.00;;
57303;SDS011;43150;50.986;18.208;2022-11-02T17:01:23;19.90;;;16.50;;
57303;SDS011;43150;50.986;18.208;2022-11-02T17:03:50;19.60;;;16.20;;
57303;SDS011;43150;50.986;18.208;2022-11-02T17:06:22;20.50;;;16.90;;
57303;SDS011;43150;50.986;18.208;2022-11-02T17:08:58;20.10;;;17.40;;
57303;SDS011;43150;50.986;18.208;2022-11-02T17:11:24;20.70;;;18.00;;
57303;SDS011;43150;50.986;18.208;2022-11-02T17:13:52;20.50;;;18.10;;
57303;SDS011;43150;50.986;18.208;2022-11-02T17:18:46;23.90;;;18.90;;
57303;SDS011;43150;50.986;18.208;2022-11-02T17:23:38;22.90;;;19.00;;
57303;SDS011;43150;50.986;18.208;2022-11-02T17:28:49;21.30;;;18.30;;
57303;SDS011;43150;50.986;18.208;2022-11-02T17:31:22;22.10;;;18.30;;
57303;SDS011;43150;50.986;18.208;2022-11-02T17:33:53;24.60;;;18.60;;
57303;SDS011;43150;50.986;18.208;2022-11-02T17:36:19;21.80;;;18.20;;
57303;SDS011;43150;50.986;18.208;2022-11-02T17:38:44;22.40;;;18.90;;
57303;SDS011;43150;50.986;18.208;2022-11-02T17:41:12;19.20;;;16.90;;
57303;SDS011;43150;50.986;18.208;2022-11-02T17:43:59;21.20;;;18.70;;
57303;SDS011;43150;50.986;18.208;2022-11-02T17:46:24;24.00;;;18.20;;
57303;SDS011;43150;50.986;18.208;2022-11-02T17:48:50;23.20;;;16.80;;
57303;SDS011;43150;50.986;18.208;2022-11-02T17:51:15;16.00;;;12.00;;
57303;SDS011;43150;50.986;18.208;2022-11-02T17:53:44;15.30;;;11.40;;
57303;SDS011;43150;50.986;18.208;2022-11-02T17:56:09;14.90;;;11.30;;
57303;SDS011;43150;50.986;18.208;2022-11-02T17:58:35;15.40;;;11.60;;
57303;SDS011;43150;50.986;18.208;2022-11-02T18:01:11;16.00;;;12.20;;
57303;SDS011;43150;50.986;18.208;2022-11-02T18:03:38;15.40;;;12.60;;
57303;SDS011;43150;50.986;18.208;2022-11-02T18:06:05;16.50;;;13.50;;
57303;SDS011;43150;50.986;18.208;2022-11-02T18:08:31;16.60;;;13.00;;
57303;SDS011;43150;50.986;18.208;2022-11-02T18:11:20;17.00;;;13.60;;